sensor_id;sensor_type;location;lat;lon;timestamp;P1;durP1;ratioP1;P2;durP2;ratioP2
85104;SDS011;75457;53.198;45.008;2024-03-23T00:57:33;8.95;;;3.95;;
85104;SDS011;75457;53.198;45.008;2024-03-23T01:01:33;8.47;;;3.93;;
85104;SDS011;75457;53.198;45.008;2024-03-23T01:05:35;7.43;;;4.38;;
85104;SDS011;75457;53.198;45.008;2024-03-23T01:09:36;7.40;;;4.67;;
85104;SDS011;75457;53.198;45.008;2024-03-23T01:13:36;9.40;;;4.30;;
85104;SDS011;75457;53.198;45.008;2024-03-23T01:17:36;8.87;;;4.47;;
85104;SDS011;75457;53.198;45.008;2024-03-23T01:21:37;8.90;;;4.27;;
85104;SDS011;75457;53.198;45.008;2024-03-23T01:25:37;9.97;;;4.23;;
85104;SDS011;75457;53.198;45.008;2024-03-23T01:29:38;9.30;;;4.65;;
85104;SDS011;75457;53.198;45.008;2024-03-23T01:33:38;9.67;;;4.87;;
85104;SDS011;75457;53.198;45.008;2024-03-23T01:37:39;14.50;;;6.23;;
85104;SDS011;75457;53.198;45.008;2024-03-23T01:41:39;10.83;;;5.47;;
85104;SDS011;75457;53.198;45.008;2024-03-23T01:45:40;8.35;;;5.15;;
85104;SDS011;75457;53.198;45.008;2024-03-23T01:49:41;9.00;;;5.22;;
85104;SDS011;75457;53.198;45.008;2024-03-23T01:53:41;9.90;;;6.13;;
85104;SDS011;75457;53.198;45.008;2024-03-23T01:57:41;10.47;;;5.40;;
85104;SDS011;75457;53.198;45.008;2024-03-23T02:01:42;11.60;;;5.40;;
85104;SDS011;75457;53.198;45.008;2024-03-23T02:05:42;11.17;;;6.10;;
85104;SDS011;75457;53.198;45.008;2024-03-23T02:09:43;11.33;;;6.30;;
85104;SDS011;75457;53.198;45.008;2024-03-23T02:13:43;11.25;;;5.75;;
85104;SDS011;75457;53.198;45.008;2024-03-23T02:17:44;10.10;;;5.90;;
85104;SDS011;75457;53.198;45.008;2024-03-23T02:21:44;10.67;;;6.00;;
85104;SDS011;75457;53.198;45.008;2024-03-23T02:25:45;9.97;;;5.70;;
85104;SDS011;75457;53.198;45.008;2024-03-23T02:29:45;9.50;;;6.18;;
85104;SDS011;75457;53.198;45.008;2024-03-23T02:33:45;9.93;;;6.13;;
85104;SDS011;75457;53.198;45.008;2024-03-23T02:37:46;10.13;;;6.20;;
85104;SDS011;75457;53.198;45.008;2024-03-23T02:41:47;11.00;;;5.35;;
85104;SDS011;75457;53.198;45.008;2024-03-23T02:45:47;11.40;;;6.13;;
85104;SDS011;75457;53.198;45.008;2024-03-23T02:49:47;9.77;;;6.03;;
85104;SDS011;75457;53.198;45.008;2024-03-23T02:53:48;10.73;;;6.37;;
85104;SDS011;75457;53.198;45.008;2024-03-23T02:57:48;12.77;;;5.30;;
85104;SDS011;75457;53.198;45.008;2024-03-23T03:01:48;10.33;;;5.57;;
85104;SDS011;75457;53.198;45.008;2024-03-23T03:05:54;8.50;;;5.43;;
85104;SDS011;75457;53.198;45.008;2024-03-23T03:09:55;13.40;;;5.93;;
85104;SDS011;75457;53.198;45.008;2024-03-23T03:13:55;9.77;;;6.23;;
85104;SDS011;75457;53.198;45.008;2024-03-23T03:17:56;9.17;;;5.53;;
85104;SDS011;75457;53.198;45.008;2024-03-23T03:21:56;8.20;;;5.23;;
85104;SDS011;75457;53.198;45.008;2024-03-23T03:25:56;8.47;;;5.70;;
85104;SDS011;75457;53.198;45.008;2024-03-23T03:29:57;10.63;;;5.53;;
85104;SDS011;75457;53.198;45.008;2024-03-23T03:33:57;11.23;;;5.00;;
85104;SDS011;75457;53.198;45.008;2024-03-23T03:37:57;8.80;;;5.17;;
85104;SDS011;75457;53.198;45.008;2024-03-23T03:41:58;9.67;;;4.97;;
85104;SDS011;75457;53.198;45.008;2024-03-23T03:45:59;12.00;;;5.90;;
85104;SDS011;75457;53.198;45.008;2024-03-23T03:50:00;11.23;;;5.30;;
85104;SDS011;75457;53.198;45.008;2024-03-23T03:54:00;18.47;;;4.80;;
85104;SDS011;75457;53.198;45.008;2024-03-23T03:58:02;11.73;;;4.97;;
85104;SDS011;75457;53.198;45.008;2024-03-23T04:02:02;11.32;;;4.97;;
85104;SDS011;75457;53.198;45.008;2024-03-23T04:06:03;12.77;;;4.85;;
85104;SDS011;75457;53.198;45.008;2024-03-23T04:10:03;9.20;;;4.47;;
85104;SDS011;75457;53.198;45.008;2024-03-23T04:14:04;12.48;;;5.65;;
85104;SDS011;75457;53.198;45.008;2024-03-23T04:18:04;9.00;;;4.93;;
85104;SDS011;75457;53.198;45.008;2024-03-23T04:22:05;12.50;;;5.88;;
85104;SDS011;75457;53.198;45.008;2024-03-23T04:26:05;13.23;;;6.17;;
85104;SDS011;75457;53.198;45.008;2024-03-23T04:30:06;17.30;;;6.23;;
85104;SDS011;75457;53.198;45.008;2024-03-23T04:34:06;11.57;;;6.28;;
85104;SDS011;75457;53.198;45.008;2024-03-23T04:38:07;12.37;;;6.20;;
85104;SDS011;75457;53.198;45.008;2024-03-23T04:42:07;15.83;;;6.43;;
85104;SDS011;75457;53.198;45.008;2024-03-23T04:46:07;11.73;;;6.17;;
85104;SDS011;75457;53.198;45.008;2024-03-23T04:50:08;12.13;;;6.33;;
85104;SDS011;75457;53.198;45.008;2024-03-23T04:54:08;15.40;;;8.00;;
85104;SDS011;75457;53.198;45.008;2024-03-23T04:58:09;12.93;;;6.93;;
85104;SDS011;75457;53.198;45.008;2024-03-23T05:02:09;10.37;;;6.37;;
85104;SDS011;75457;53.198;45.008;2024-03-23T05:06:09;10.73;;;5.90;;
85104;SDS011;75457;53.198;45.008;2024-03-23T05:10:10;11.80;;;6.03;;
85104;SDS011;75457;53.198;45.008;2024-03-23T05:14:11;10.65;;;5.97;;
85104;SDS011;75457;53.198;45.008;2024-03-23T05:18:13;7.80;;;5.22;;
85104;SDS011;75457;53.198;45.008;2024-03-23T05:22:13;9.83;;;5.30;;
85104;SDS011;75457;53.198;45.008;2024-03-23T05:26:14;11.07;;;5.90;;
85104;SDS011;75457;53.198;45.008;2024-03-23T05:30:14;8.68;;;6.13;;
85104;SDS011;75457;53.198;45.008;2024-03-23T05:34:14;14.02;;;5.88;;
85104;SDS011;75457;53.198;45.008;2024-03-23T05:38:15;8.83;;;5.47;;
85104;SDS011;75457;53.198;45.008;2024-03-23T05:42:16;10.43;;;5.80;;
85104;SDS011;75457;53.198;45.008;2024-03-23T05:46:16;8.35;;;5.13;;
85104;SDS011;75457;53.198;45.008;2024-03-23T05:50:17;7.70;;;5.33;;
85104;SDS011;75457;53.198;45.008;2024-03-23T05:54:17;11.80;;;5.40;;
85104;SDS011;75457;53.198;45.008;2024-03-23T05:58:18;12.50;;;5.80;;
85104;SDS011;75457;53.198;45.008;2024-03-23T06:02:18;6.13;;;4.20;;
85104;SDS011;75457;53.198;45.008;2024-03-23T06:06:18;9.93;;;5.47;;
85104;SDS011;75457;53.198;45.008;2024-03-23T06:10:18;8.00;;;4.97;;
85104;SDS011;75457;53.198;45.008;2024-03-23T06:14:19;10.00;;;5.23;;
85104;SDS011;75457;53.198;45.008;2024-03-23T06:18:19;10.77;;;6.40;;
85104;SDS011;75457;53.198;45.008;2024-03-23T06:22:20;8.77;;;5.30;;
85104;SDS011;75457;53.198;45.008;2024-03-23T06:26:20;6.27;;;4.20;;
85104;SDS011;75457;53.198;45.008;2024-03-23T06:30:21;8.45;;;4.68;;
85104;SDS011;75457;53.198;45.008;2024-03-23T06:34:21;7.27;;;4.37;;
85104;SDS011;75457;53.198;45.008;2024-03-23T06:38:21;9.00;;;4.67;;
85104;SDS011;75457;53.198;45.008;2024-03-23T06:42:22;5.93;;;4.03;;
85104;SDS011;75457;53.198;45.008;2024-03-23T06:46:22;10.13;;;4.70;;
85104;SDS011;75457;53.198;45.008;2024-03-23T06:50:23;6.10;;;4.27;;
85104;SDS011;75457;53.198;45.008;2024-03-23T06:54:24;6.63;;;4.05;;
85104;SDS011;75457;53.198;45.008;2024-03-23T06:58:24;7.35;;;5.03;;
85104;SDS011;75457;53.198;45.008;2024-03-23T07:02:25;6.85;;;4.55;;
85104;SDS011;75457;53.198;45.008;2024-03-23T07:06:25;8.37;;;5.37;;
85104;SDS011;75457;53.198;45.008;2024-03-23T07:10:26;8.00;;;4.90;;
85104;SDS011;75457;53.198;45.008;2024-03-23T07:14:26;8.47;;;5.37;;
85104;SDS011;75457;53.198;45.008;2024-03-23T07:18:26;8.57;;;5.03;;
85104;SDS011;75457;53.198;45.008;2024-03-23T07:22:26;8.80;;;4.47;;
85104;SDS011;75457;53.198;45.008;2024-03-23T07:26:27;6.77;;;4.40;;
85104;SDS011;75457;53.198;45.008;2024-03-23T07:30:27;7.27;;;4.20;;
85104;SDS011;75457;53.198;45.008;2024-03-23T07:34:27;6.63;;;4.00;;
85104;SDS011;75457;53.198;45.008;2024-03-23T07:38:28;8.20;;;4.47;;
85104;SDS011;75457;53.198;45.008;2024-03-23T07:42:29;8.35;;;4.63;;
85104;SDS011;75457;53.198;45.008;2024-03-23T07:46:29;6.57;;;3.97;;
85104;SDS011;75457;53.198;45.008;2024-03-23T07:50:29;6.07;;;3.97;;
85104;SDS011;75457;53.198;45.008;2024-03-23T07:54:30;7.40;;;4.50;;
85104;SDS011;75457;53.198;45.008;2024-03-23T07:58:30;7.70;;;4.50;;
85104;SDS011;75457;53.198;45.008;2024-03-23T08:02:30;6.47;;;4.07;;
85104;SDS011;75457;53.198;45.008;2024-03-23T08:06:31;7.27;;;4.13;;
85104;SDS011;75457;53.198;45.008;2024-03-23T08:10:31;6.93;;;3.87;;
85104;SDS011;75457;53.198;45.008;2024-03-23T08:14:31;5.10;;;4.00;;
85104;SDS011;75457;53.198;45.008;2024-03-23T08:18:32;7.10;;;3.90;;
85104;SDS011;75457;53.198;45.008;2024-03-23T08:22:32;7.22;;;3.72;;
85104;SDS011;75457;53.198;45.008;2024-03-23T08:26:32;5.67;;;3.67;;
85104;SDS011;75457;53.198;45.008;2024-03-23T08:30:34;6.43;;;3.90;;
85104;SDS011;75457;53.198;45.008;2024-03-23T08:34:35;8.63;;;4.28;;
85104;SDS011;75457;53.198;45.008;2024-03-23T08:38:35;6.77;;;4.27;;
85104;SDS011;75457;53.198;45.008;2024-03-23T08:42:36;6.25;;;4.28;;
85104;SDS011;75457;53.198;45.008;2024-03-23T08:46:37;7.73;;;3.90;;
85104;SDS011;75457;53.198;45.008;2024-03-23T08:50:37;7.20;;;4.47;;
85104;SDS011;75457;53.198;45.008;2024-03-23T08:54:37;7.30;;;4.00;;
85104;SDS011;75457;53.198;45.008;2024-03-23T08:58:38;4.50;;;3.37;;
85104;SDS011;75457;53.198;45.008;2024-03-23T09:02:39;5.93;;;3.60;;
85104;SDS011;75457;53.198;45.008;2024-03-23T09:06:39;6.17;;;3.63;;
85104;SDS011;75457;53.198;45.008;2024-03-23T09:10:43;5.70;;;3.03;;
85104;SDS011;75457;53.198;45.008;2024-03-23T09:14:43;7.15;;;3.70;;
85104;SDS011;75457;53.198;45.008;2024-03-23T09:18:43;7.13;;;4.17;;
85104;SDS011;75457;53.198;45.008;2024-03-23T09:22:44;7.97;;;3.90;;
85104;SDS011;75457;53.198;45.008;2024-03-23T09:26:44;6.43;;;3.90;;
85104;SDS011;75457;53.198;45.008;2024-03-23T09:30:44;7.00;;;4.03;;
85104;SDS011;75457;53.198;45.008;2024-03-23T09:34:45;7.20;;;3.77;;
85104;SDS011;75457;53.198;45.008;2024-03-23T09:38:45;6.37;;;3.67;;
85104;SDS011;75457;53.198;45.008;2024-03-23T09:42:51;5.67;;;3.87;;
85104;SDS011;75457;53.198;45.008;2024-03-23T09:46:52;6.97;;;4.38;;
85104;SDS011;75457;53.198;45.008;2024-03-23T09:50:52;6.07;;;4.07;;
85104;SDS011;75457;53.198;45.008;2024-03-23T09:54:52;8.43;;;4.20;;
85104;SDS011;75457;53.198;45.008;2024-03-23T09:58:59;7.77;;;4.23;;
85104;SDS011;75457;53.198;45.008;2024-03-23T10:03:03;6.05;;;3.80;;
85104;SDS011;75457;53.198;45.008;2024-03-23T10:07:14;6.88;;;3.95;;
85104;SDS011;75457;53.198;45.008;2024-03-23T10:11:16;7.68;;;4.07;;
85104;SDS011;75457;53.198;45.008;2024-03-23T10:15:26;6.18;;;3.63;;
85104;SDS011;75457;53.198;45.008;2024-03-23T10:19:32;6.45;;;3.92;;
85104;SDS011;75457;53.198;45.008;2024-03-23T10:23:33;7.72;;;4.50;;
85104;SDS011;75457;53.198;45.008;2024-03-23T10:27:33;5.55;;;3.97;;
85104;SDS011;75457;53.198;45.008;2024-03-23T10:31:34;6.70;;;4.50;;
85104;SDS011;75457;53.198;45.008;2024-03-23T10:35:34;6.05;;;4.53;;
85104;SDS011;75457;53.198;45.008;2024-03-23T10:39:37;5.97;;;4.10;;
85104;SDS011;75457;53.198;45.008;2024-03-23T10:43:39;8.13;;;4.43;;
85104;SDS011;75457;53.198;45.008;2024-03-23T10:47:39;7.68;;;4.05;;
85104;SDS011;75457;53.198;45.008;2024-03-23T10:51:39;5.67;;;4.40;;
85104;SDS011;75457;53.198;45.008;2024-03-23T10:55:40;6.47;;;4.20;;
85104;SDS011;75457;53.198;45.008;2024-03-23T10:59:41;7.40;;;4.65;;
85104;SDS011;75457;53.198;45.008;2024-03-23T11:03:45;5.43;;;4.57;;
85104;SDS011;75457;53.198;45.008;2024-03-23T11:07:49;6.97;;;4.20;;
85104;SDS011;75457;53.198;45.008;2024-03-23T11:11:50;10.43;;;5.10;;
85104;SDS011;75457;53.198;45.008;2024-03-23T11:15:51;4.87;;;4.13;;
85104;SDS011;75457;53.198;45.008;2024-03-23T11:20:00;7.57;;;4.70;;
85104;SDS011;75457;53.198;45.008;2024-03-23T11:24:14;6.38;;;4.35;;
85104;SDS011;75457;53.198;45.008;2024-03-23T11:28:15;7.28;;;4.32;;
85104;SDS011;75457;53.198;45.008;2024-03-23T11:32:16;6.32;;;4.43;;
85104;SDS011;75457;53.198;45.008;2024-03-23T11:36:18;6.43;;;4.63;;
85104;SDS011;75457;53.198;45.008;2024-03-23T11:40:19;7.75;;;5.22;;
85104;SDS011;75457;53.198;45.008;2024-03-23T11:44:24;5.85;;;4.70;;
85104;SDS011;75457;53.198;45.008;2024-03-23T11:48:26;6.28;;;5.05;;
85104;SDS011;75457;53.198;45.008;2024-03-23T11:52:26;8.25;;;4.85;;
85104;SDS011;75457;53.198;45.008;2024-03-23T11:56:27;8.93;;;5.57;;
85104;SDS011;75457;53.198;45.008;2024-03-23T12:00:27;8.03;;;4.60;;
85104;SDS011;75457;53.198;45.008;2024-03-23T12:04:28;6.47;;;4.50;;
85104;SDS011;75457;53.198;45.008;2024-03-23T12:08:32;8.85;;;5.07;;
85104;SDS011;75457;53.198;45.008;2024-03-23T12:12:33;7.93;;;4.68;;
85104;SDS011;75457;53.198;45.008;2024-03-23T12:16:33;5.90;;;4.47;;
85104;SDS011;75457;53.198;45.008;2024-03-23T12:20:34;10.07;;;5.73;;
85104;SDS011;75457;53.198;45.008;2024-03-23T12:24:34;8.03;;;4.70;;
85104;SDS011;75457;53.198;45.008;2024-03-23T12:28:35;7.60;;;4.30;;
85104;SDS011;75457;53.198;45.008;2024-03-23T12:32:35;7.87;;;5.00;;
85104;SDS011;75457;53.198;45.008;2024-03-23T12:36:35;6.00;;;4.33;;
85104;SDS011;75457;53.198;45.008;2024-03-23T12:40:36;8.20;;;4.73;;
85104;SDS011;75457;53.198;45.008;2024-03-23T12:44:36;8.90;;;5.00;;
85104;SDS011;75457;53.198;45.008;2024-03-23T12:48:36;6.70;;;4.70;;
85104;SDS011;75457;53.198;45.008;2024-03-23T12:52:37;7.47;;;4.53;;
85104;SDS011;75457;53.198;45.008;2024-03-23T12:56:37;10.40;;;4.80;;
85104;SDS011;75457;53.198;45.008;2024-03-23T13:00:38;6.83;;;4.60;;
85104;SDS011;75457;53.198;45.008;2024-03-23T13:04:38;6.53;;;5.17;;
85104;SDS011;75457;53.198;45.008;2024-03-23T13:08:38;7.97;;;5.00;;
85104;SDS011;75457;53.198;45.008;2024-03-23T13:12:39;7.70;;;5.07;;
85104;SDS011;75457;53.198;45.008;2024-03-23T13:16:39;10.53;;;5.70;;
85104;SDS011;75457;53.198;45.008;2024-03-23T13:20:39;9.00;;;5.50;;
85104;SDS011;75457;53.198;45.008;2024-03-23T13:24:40;9.40;;;5.70;;
85104;SDS011;75457;53.198;45.008;2024-03-23T13:28:40;8.33;;;5.23;;
85104;SDS011;75457;53.198;45.008;2024-03-23T13:32:40;9.23;;;5.67;;
85104;SDS011;75457;53.198;45.008;2024-03-23T13:36:41;8.17;;;5.33;;
85104;SDS011;75457;53.198;45.008;2024-03-23T13:40:58;7.95;;;5.05;;
85104;SDS011;75457;53.198;45.008;2024-03-23T13:44:59;8.45;;;4.88;;
85104;SDS011;75457;53.198;45.008;2024-03-23T13:49:00;8.87;;;5.07;;
85104;SDS011;75457;53.198;45.008;2024-03-23T13:53:00;7.65;;;4.60;;
85104;SDS011;75457;53.198;45.008;2024-03-23T13:57:00;7.13;;;4.67;;
85104;SDS011;75457;53.198;45.008;2024-03-23T14:01:01;7.33;;;4.50;;
85104;SDS011;75457;53.198;45.008;2024-03-23T14:05:01;6.37;;;4.30;;
85104;SDS011;75457;53.198;45.008;2024-03-23T14:09:02;7.00;;;4.50;;
85104;SDS011;75457;53.198;45.008;2024-03-23T14:13:02;6.57;;;4.63;;
85104;SDS011;75457;53.198;45.008;2024-03-23T14:17:03;6.78;;;4.57;;
85104;SDS011;75457;53.198;45.008;2024-03-23T14:21:03;5.70;;;4.30;;
85104;SDS011;75457;53.198;45.008;2024-03-23T14:25:04;6.30;;;4.47;;
85104;SDS011;75457;53.198;45.008;2024-03-23T14:29:04;7.28;;;4.40;;
85104;SDS011;75457;53.198;45.008;2024-03-23T14:33:05;6.33;;;4.50;;
85104;SDS011;75457;53.198;45.008;2024-03-23T14:37:05;6.80;;;4.00;;
85104;SDS011;75457;53.198;45.008;2024-03-23T14:41:06;7.63;;;4.43;;
85104;SDS011;75457;53.198;45.008;2024-03-23T14:45:07;7.20;;;4.55;;
85104;SDS011;75457;53.198;45.008;2024-03-23T14:49:07;7.38;;;4.22;;
85104;SDS011;75457;53.198;45.008;2024-03-23T14:53:08;6.83;;;4.27;;
85104;SDS011;75457;53.198;45.008;2024-03-23T14:57:08;8.33;;;4.67;;
85104;SDS011;75457;53.198;45.008;2024-03-23T15:01:08;6.57;;;4.63;;
85104;SDS011;75457;53.198;45.008;2024-03-23T15:05:09;7.25;;;4.85;;
85104;SDS011;75457;53.198;45.008;2024-03-23T15:09:09;12.53;;;5.57;;
85104;SDS011;75457;53.198;45.008;2024-03-23T15:13:09;9.93;;;5.40;;
85104;SDS011;75457;53.198;45.008;2024-03-23T15:17:10;6.93;;;4.87;;
85104;SDS011;75457;53.198;45.008;2024-03-23T15:21:10;6.80;;;4.67;;
85104;SDS011;75457;53.198;45.008;2024-03-23T15:25:10;8.23;;;5.43;;
85104;SDS011;75457;53.198;45.008;2024-03-23T15:29:11;8.53;;;5.10;;
85104;SDS011;75457;53.198;45.008;2024-03-23T15:33:11;6.90;;;4.43;;
85104;SDS011;75457;53.198;45.008;2024-03-23T15:37:11;7.80;;;4.47;;
85104;SDS011;75457;53.198;45.008;2024-03-23T15:41:12;5.43;;;4.00;;
85104;SDS011;75457;53.198;45.008;2024-03-23T15:45:12;6.90;;;4.23;;
85104;SDS011;75457;53.198;45.008;2024-03-23T15:49:12;7.00;;;4.33;;
85104;SDS011;75457;53.198;45.008;2024-03-23T15:53:13;8.27;;;4.43;;
85104;SDS011;75457;53.198;45.008;2024-03-23T15:57:13;8.60;;;5.03;;
85104;SDS011;75457;53.198;45.008;2024-03-23T16:01:13;7.83;;;4.03;;
85104;SDS011;75457;53.198;45.008;2024-03-23T16:05:14;6.63;;;3.80;;
85104;SDS011;75457;53.198;45.008;2024-03-23T16:09:14;8.37;;;4.37;;
85104;SDS011;75457;53.198;45.008;2024-03-23T16:13:14;8.00;;;4.17;;
85104;SDS011;75457;53.198;45.008;2024-03-23T16:17:15;5.38;;;3.78;;
85104;SDS011;75457;53.198;45.008;2024-03-23T16:21:16;5.87;;;4.03;;
85104;SDS011;75457;53.198;45.008;2024-03-23T16:25:16;8.00;;;4.60;;
85104;SDS011;75457;53.198;45.008;2024-03-23T16:29:16;6.20;;;4.67;;
85104;SDS011;75457;53.198;45.008;2024-03-23T16:33:17;9.63;;;5.17;;
85104;SDS011;75457;53.198;45.008;2024-03-23T16:37:17;8.33;;;4.90;;
85104;SDS011;75457;53.198;45.008;2024-03-23T16:41:17;6.90;;;4.63;;
85104;SDS011;75457;53.198;45.008;2024-03-23T16:45:18;6.20;;;4.57;;
85104;SDS011;75457;53.198;45.008;2024-03-23T16:49:18;7.57;;;4.50;;
85104;SDS011;75457;53.198;45.008;2024-03-23T16:53:18;6.30;;;4.47;;
85104;SDS011;75457;53.198;45.008;2024-03-23T16:57:19;7.03;;;4.50;;
85104;SDS011;75457;53.198;45.008;2024-03-23T17:01:19;9.60;;;5.60;;
85104;SDS011;75457;53.198;45.008;2024-03-23T17:05:19;6.67;;;5.10;;
85104;SDS011;75457;53.198;45.008;2024-03-23T17:09:20;8.73;;;4.50;;
85104;SDS011;75457;53.198;45.008;2024-03-23T17:13:20;8.10;;;4.53;;
85104;SDS011;75457;53.198;45.008;2024-03-23T17:17:20;6.23;;;4.13;;
85104;SDS011;75457;53.198;45.008;2024-03-23T17:21:21;5.87;;;4.60;;
85104;SDS011;75457;53.198;45.008;2024-03-23T17:25:22;8.02;;;4.93;;
85104;SDS011;75457;53.198;45.008;2024-03-23T17:29:22;7.55;;;4.40;;
85104;SDS011;75457;53.198;45.008;2024-03-23T17:33:22;6.67;;;4.23;;
85104;SDS011;75457;53.198;45.008;2024-03-23T17:37:23;7.87;;;5.13;;
85104;SDS011;75457;53.198;45.008;2024-03-23T17:41:23;7.83;;;4.40;;
85104;SDS011;75457;53.198;45.008;2024-03-23T17:45:23;8.13;;;4.80;;
85104;SDS011;75457;53.198;45.008;2024-03-23T17:49:24;8.87;;;5.33;;
85104;SDS011;75457;53.198;45.008;2024-03-23T17:53:24;6.90;;;5.07;;
85104;SDS011;75457;53.198;45.008;2024-03-23T17:57:25;6.47;;;4.37;;
85104;SDS011;75457;53.198;45.008;2024-03-23T18:01:25;7.07;;;5.05;;
85104;SDS011;75457;53.198;45.008;2024-03-23T18:05:26;8.07;;;4.53;;
85104;SDS011;75457;53.198;45.008;2024-03-23T18:09:26;8.57;;;4.77;;
85104;SDS011;75457;53.198;45.008;2024-03-23T18:13:26;12.30;;;5.53;;
85104;SDS011;75457;53.198;45.008;2024-03-23T18:17:27;7.27;;;4.23;;
85104;SDS011;75457;53.198;45.008;2024-03-23T18:21:27;10.53;;;5.30;;
85104;SDS011;75457;53.198;45.008;2024-03-23T18:25:27;7.37;;;5.03;;
85104;SDS011;75457;53.198;45.008;2024-03-23T18:29:28;9.00;;;5.20;;
85104;SDS011;75457;53.198;45.008;2024-03-23T18:33:36;9.55;;;5.65;;
85104;SDS011;75457;53.198;45.008;2024-03-23T18:37:39;10.57;;;6.18;;
85104;SDS011;75457;53.198;45.008;2024-03-23T18:41:39;9.97;;;5.70;;
85104;SDS011;75457;53.198;45.008;2024-03-23T18:45:49;11.03;;;5.93;;
85104;SDS011;75457;53.198;45.008;2024-03-23T18:49:50;10.60;;;6.60;;
85104;SDS011;75457;53.198;45.008;2024-03-23T18:53:50;11.57;;;6.47;;
85104;SDS011;75457;53.198;45.008;2024-03-23T18:57:50;9.77;;;5.80;;
85104;SDS011;75457;53.198;45.008;2024-03-23T19:01:51;9.13;;;5.63;;
85104;SDS011;75457;53.198;45.008;2024-03-23T19:05:52;8.60;;;5.20;;
85104;SDS011;75457;53.198;45.008;2024-03-23T19:09:53;14.32;;;5.93;;
85104;SDS011;75457;53.198;45.008;2024-03-23T19:13:54;8.87;;;5.33;;
85104;SDS011;75457;53.198;45.008;2024-03-23T19:17:54;9.02;;;6.20;;
85104;SDS011;75457;53.198;45.008;2024-03-23T19:21:55;8.43;;;5.67;;
85104;SDS011;75457;53.198;45.008;2024-03-23T19:25:56;9.27;;;5.67;;
85104;SDS011;75457;53.198;45.008;2024-03-23T19:29:57;10.52;;;6.03;;
85104;SDS011;75457;53.198;45.008;2024-03-23T19:33:57;10.00;;;5.73;;
85104;SDS011;75457;53.198;45.008;2024-03-23T19:37:57;10.83;;;6.60;;
85104;SDS011;75457;53.198;45.008;2024-03-23T19:41:58;10.60;;;6.00;;
85104;SDS011;75457;53.198;45.008;2024-03-23T19:46:01;10.63;;;6.57;;
85104;SDS011;75457;53.198;45.008;2024-03-23T19:50:03;10.40;;;6.07;;
85104;SDS011;75457;53.198;45.008;2024-03-23T19:54:03;11.02;;;7.03;;
85104;SDS011;75457;53.198;45.008;2024-03-23T19:58:04;11.63;;;6.10;;
85104;SDS011;75457;53.198;45.008;2024-03-23T20:02:05;9.65;;;6.30;;
85104;SDS011;75457;53.198;45.008;2024-03-23T20:06:05;9.80;;;6.57;;
85104;SDS011;75457;53.198;45.008;2024-03-23T20:10:06;9.98;;;5.88;;
85104;SDS011;75457;53.198;45.008;2024-03-23T20:14:07;11.43;;;6.90;;
85104;SDS011;75457;53.198;45.008;2024-03-23T20:18:07;12.07;;;6.03;;
85104;SDS011;75457;53.198;45.008;2024-03-23T20:22:07;11.43;;;6.57;;
85104;SDS011;75457;53.198;45.008;2024-03-23T20:26:08;10.00;;;6.33;;
85104;SDS011;75457;53.198;45.008;2024-03-23T20:30:08;10.70;;;6.37;;
85104;SDS011;75457;53.198;45.008;2024-03-23T20:34:08;12.52;;;5.72;;
85104;SDS011;75457;53.198;45.008;2024-03-23T20:38:09;12.03;;;6.90;;
85104;SDS011;75457;53.198;45.008;2024-03-23T20:42:09;15.60;;;6.13;;
85104;SDS011;75457;53.198;45.008;2024-03-23T20:46:09;10.63;;;6.17;;
85104;SDS011;75457;53.198;45.008;2024-03-23T20:50:10;9.70;;;6.13;;
85104;SDS011;75457;53.198;45.008;2024-03-23T20:54:11;11.37;;;6.80;;
85104;SDS011;75457;53.198;45.008;2024-03-23T20:58:11;12.40;;;6.77;;
85104;SDS011;75457;53.198;45.008;2024-03-23T21:02:11;10.43;;;6.40;;
85104;SDS011;75457;53.198;45.008;2024-03-23T21:06:11;9.60;;;5.80;;
85104;SDS011;75457;53.198;45.008;2024-03-23T21:10:12;9.77;;;6.30;;
85104;SDS011;75457;53.198;45.008;2024-03-23T21:14:12;14.97;;;6.80;;
85104;SDS011;75457;53.198;45.008;2024-03-23T21:18:13;11.77;;;6.67;;
85104;SDS011;75457;53.198;45.008;2024-03-23T21:22:13;10.35;;;6.53;;
85104;SDS011;75457;53.198;45.008;2024-03-23T21:26:14;12.93;;;7.55;;
85104;SDS011;75457;53.198;45.008;2024-03-23T21:30:14;12.73;;;6.93;;
85104;SDS011;75457;53.198;45.008;2024-03-23T21:34:14;10.37;;;6.43;;
85104;SDS011;75457;53.198;45.008;2024-03-23T21:38:14;11.27;;;6.80;;
85104;SDS011;75457;53.198;45.008;2024-03-23T21:42:15;11.57;;;6.17;;
85104;SDS011;75457;53.198;45.008;2024-03-23T21:46:15;9.55;;;6.30;;
85104;SDS011;75457;53.198;45.008;2024-03-23T21:50:16;12.33;;;6.63;;
85104;SDS011;75457;53.198;45.008;2024-03-23T21:54:16;13.60;;;7.67;;
85104;SDS011;75457;53.198;45.008;2024-03-23T21:58:17;13.07;;;6.67;;
85104;SDS011;75457;53.198;45.008;2024-03-23T22:02:18;12.20;;;6.88;;
85104;SDS011;75457;53.198;45.008;2024-03-23T22:06:18;12.77;;;7.17;;
85104;SDS011;75457;53.198;45.008;2024-03-23T22:10:18;13.63;;;6.33;;
85104;SDS011;75457;53.198;45.008;2024-03-23T22:14:19;15.87;;;7.83;;
85104;SDS011;75457;53.198;45.008;2024-03-23T22:18:19;11.37;;;6.43;;
85104;SDS011;75457;53.198;45.008;2024-03-23T22:22:19;15.67;;;7.80;;
85104;SDS011;75457;53.198;45.008;2024-03-23T22:26:20;14.17;;;7.03;;
85104;SDS011;75457;53.198;45.008;2024-03-23T22:30:20;14.17;;;7.73;;
85104;SDS011;75457;53.198;45.008;2024-03-23T22:34:20;11.87;;;7.33;;
85104;SDS011;75457;53.198;45.008;2024-03-23T22:38:21;18.20;;;7.20;;
85104;SDS011;75457;53.198;45.008;2024-03-23T22:42:22;14.65;;;8.10;;
85104;SDS011;75457;53.198;45.008;2024-03-23T22:46:22;15.33;;;7.27;;
85104;SDS011;75457;53.198;45.008;2024-03-23T22:50:23;14.60;;;7.83;;
85104;SDS011;75457;53.198;45.008;2024-03-23T22:54:23;17.97;;;7.87;;
85104;SDS011;75457;53.198;45.008;2024-03-23T22:58:24;12.43;;;6.53;;
85104;SDS011;75457;53.198;45.008;2024-03-23T23:02:24;14.18;;;6.97;;
85104;SDS011;75457;53.198;45.008;2024-03-23T23:06:25;13.23;;;7.80;;
85104;SDS011;75457;53.198;45.008;2024-03-23T23:10:25;17.27;;;7.77;;
85104;SDS011;75457;53.198;45.008;2024-03-23T23:14:25;13.03;;;8.03;;
85104;SDS011;75457;53.198;45.008;2024-03-23T23:18:26;15.63;;;7.80;;
85104;SDS011;75457;53.198;45.008;2024-03-23T23:22:26;13.70;;;7.63;;
85104;SDS011;75457;53.198;45.008;2024-03-23T23:26:26;15.00;;;8.07;;
85104;SDS011;75457;53.198;45.008;2024-03-23T23:30:27;15.13;;;7.57;;
85104;SDS011;75457;53.198;45.008;2024-03-23T23:34:27;21.83;;;8.40;;
85104;SDS011;75457;53.198;45.008;2024-03-23T23:38:27;16.33;;;8.67;;
85104;SDS011;75457;53.198;45.008;2024-03-23T23:42:28;14.60;;;8.53;;
85104;SDS011;75457;53.198;45.008;2024-03-23T23:46:28;13.93;;;7.73;;
85104;SDS011;75457;53.198;45.008;2024-03-23T23:50:28;15.53;;;7.97;;
85104;SDS011;75457;53.198;45.008;2024-03-23T23:54:29;16.63;;;8.33;;
85104;SDS011;75457;53.198;45.008;2024-03-23T23:58:29;16.50;;;8.17;;
